createdAt,value
2022-09-06T00:04:21.922Z,4
2022-09-06T00:09:21.859Z,4.1
2022-09-06T00:14:21.823Z,4.1
2022-09-06T00:21:35.206Z,4.1
2022-09-06T00:24:39.056Z,4.1
2022-09-06T00:29:22.740Z,4.1
2022-09-06T00:34:24.897Z,4.1
2022-09-06T00:39:21.984Z,4.3
2022-09-06T00:44:23.044Z,4.3
2022-09-06T00:49:21.891Z,4.3
2022-09-06T00:54:21.859Z,4.3
2022-09-06T00:59:21.833Z,4.6
2022-09-06T01:04:21.896Z,4.7
2022-09-06T01:09:22.260Z,4.7
2022-09-06T01:14:21.908Z,4.9
2022-09-06T01:19:22.864Z,5.1
2022-09-06T01:24:21.871Z,5.2
2022-09-06T01:29:21.898Z,5.4
2022-09-06T01:34:21.902Z,5.4
2022-09-06T01:39:22.348Z,5.4
2022-09-06T01:44:21.860Z,5.3
2022-09-06T01:49:21.955Z,5.2
2022-09-06T01:54:21.912Z,5.1
2022-09-06T01:59:22.375Z,5
2022-09-06T02:04:21.859Z,5
2022-09-06T02:09:21.904Z,5
2022-09-06T02:14:21.956Z,5
2022-09-06T02:19:22.340Z,5
2022-09-06T02:24:22.357Z,5.1
2022-09-06T02:29:21.894Z,5.1
2022-09-06T02:34:21.933Z,5.2
2022-09-06T02:39:22.965Z,5.5
2022-09-06T02:44:21.922Z,5.5
2022-09-06T02:49:22.420Z,5.8
2022-09-06T02:54:21.884Z,6.4
2022-09-06T02:59:21.885Z,6.4
2022-09-06T03:04:21.893Z,6.5
2022-09-06T03:09:22.179Z,6.8
2022-09-06T03:14:21.919Z,7
2022-09-06T03:19:21.919Z,7.1
2022-09-06T03:24:21.924Z,7.8
2022-09-06T03:29:22.896Z,7.8
2022-09-06T03:34:21.919Z,7.9
2022-09-06T03:39:21.942Z,8.3
2022-09-06T03:44:21.943Z,8.6
2022-09-06T03:49:21.917Z,8.6
2022-09-06T03:54:22.000Z,8.7
2022-09-06T03:59:21.934Z,8.9
2022-09-06T04:04:21.898Z,10
2022-09-06T04:09:21.903Z,11.2
2022-09-06T04:14:22.424Z,11.2
2022-09-06T04:19:21.895Z,11.2
2022-09-06T04:24:21.940Z,11.2
2022-09-06T04:29:21.933Z,10.3
2022-09-06T04:34:21.940Z,10.3
2022-09-06T04:39:22.032Z,10.3
2022-09-06T04:44:21.933Z,10.3
2022-09-06T04:49:22.026Z,10.5
2022-09-06T04:54:23.425Z,10.8
2022-09-06T04:59:21.957Z,10.8
2022-09-06T05:04:23.399Z,10.9
2022-09-06T05:09:26.062Z,11.2
2022-09-06T05:14:21.998Z,11.2
2022-09-06T05:19:21.956Z,11.2
2022-09-06T05:24:21.960Z,13.3
2022-09-06T05:29:21.969Z,15.7
2022-09-06T05:34:21.945Z,17.2
2022-09-06T05:39:22.268Z,17.4
2022-09-06T05:44:21.974Z,17.4
2022-09-06T05:49:21.994Z,17.4
2022-09-06T05:54:21.963Z,17.2
2022-09-06T05:59:21.987Z,17.2
2022-09-06T06:04:21.961Z,16.5
2022-09-06T06:09:21.959Z,15
2022-09-06T06:14:22.024Z,14.1
2022-09-06T06:19:23.081Z,13.9
2022-09-06T06:24:21.959Z,13.9
2022-09-06T06:29:23.536Z,13.3
2022-09-06T06:34:21.999Z,12.8
2022-09-06T06:39:21.953Z,12.8
2022-09-06T06:44:21.947Z,12.7
2022-09-06T06:49:22.035Z,11.9
2022-09-06T06:54:22.002Z,11.7
2022-09-06T06:59:21.977Z,11.5
2022-09-06T07:04:21.984Z,11.3
2022-09-06T07:09:22.018Z,11.3
2022-09-06T07:14:22.464Z,10.4
2022-09-06T07:24:21.998Z,10.3
2022-09-06T07:29:22.006Z,10.3
2022-09-06T07:34:22.265Z,10.2
2022-09-06T07:39:22.017Z,9.6
2022-09-06T07:44:22.016Z,8.8
2022-09-06T07:49:22.022Z,8.6
2022-09-06T07:54:30.646Z,8.5
2022-09-06T07:59:22.164Z,8.2
2022-09-06T08:04:22.057Z,7.4
2022-09-06T08:09:22.005Z,7.3
2022-09-06T08:14:22.028Z,7.1
2022-09-06T08:19:22.055Z,6.5
2022-09-06T08:24:22.048Z,6.3
2022-09-06T08:29:22.017Z,6.2
2022-09-06T08:34:22.024Z,5.5
2022-09-06T08:39:22.064Z,5.5
2022-09-06T08:44:55.875Z,5.5
2022-09-06T08:49:22.003Z,5.1
2022-09-06T08:54:22.075Z,5.1
2022-09-06T08:59:22.019Z,4.9
2022-09-06T09:04:22.058Z,4.9
2022-09-06T09:09:22.027Z,4.9
2022-09-06T09:14:22.075Z,4.8
2022-09-06T09:19:22.055Z,4.9
2022-09-06T09:24:22.104Z,4.6
2022-09-06T09:29:29.550Z,4.6
2022-09-06T09:34:22.077Z,4.5
2022-09-06T09:39:22.048Z,4.3
2022-09-06T09:44:22.522Z,4.5
2022-09-06T09:49:22.083Z,4.5
2022-09-06T09:54:22.054Z,4.2
2022-09-06T09:59:22.042Z,3.9
2022-09-06T10:04:43.655Z,3.5
2022-09-06T10:09:22.036Z,3.2
2022-09-06T10:14:22.068Z,3
2022-09-06T10:19:22.101Z,2.8
2022-09-06T10:24:26.199Z,2.8
2022-09-06T10:29:22.156Z,2.8
2022-09-06T10:34:22.083Z,2.5
2022-09-06T10:39:22.081Z,2.5
2022-09-06T10:44:22.082Z,2.8
2022-09-06T10:49:22.054Z,2.5
2022-09-06T10:54:22.065Z,2.5
2022-09-06T10:59:35.498Z,2.5
2022-09-06T11:04:22.074Z,2.5
2022-09-06T11:09:22.104Z,2.5
2022-09-06T11:14:22.073Z,2.5
2022-09-06T11:19:22.080Z,2.3
2022-09-06T11:24:22.089Z,1.9
2022-09-06T11:29:22.200Z,1.8
2022-09-06T11:34:22.090Z,1.7
2022-09-06T11:44:22.166Z,1.7
2022-09-06T11:49:22.133Z,1.6
2022-09-06T11:54:22.158Z,1.6
2022-09-06T11:59:22.203Z,1.5
2022-09-06T12:04:22.214Z,1.4
2022-09-06T12:09:22.179Z,1.4
2022-09-06T12:14:22.184Z,1.4
2022-09-06T12:19:22.432Z,1.5
2022-09-06T12:24:22.183Z,1.5
2022-09-06T12:29:22.106Z,1.6
2022-09-06T12:34:22.122Z,1.6
2022-09-06T12:39:22.112Z,1.8
2022-09-06T12:44:22.155Z,1.8
2022-09-06T12:49:22.172Z,1.6
2022-09-06T12:54:22.373Z,1.6
2022-09-06T12:59:22.165Z,1.8
2022-09-06T13:04:22.138Z,1.6
2022-09-06T13:09:22.085Z,1.6
2022-09-06T13:14:22.114Z,1.6
2022-09-06T13:19:22.137Z,1.6
2022-09-06T13:24:22.121Z,1.6
2022-09-06T13:29:22.132Z,1.6
2022-09-06T13:34:22.134Z,1.6
2022-09-06T13:39:22.093Z,1.6
2022-09-06T13:44:22.116Z,1.6
2022-09-06T13:49:22.159Z,1.6
2022-09-06T13:54:22.162Z,1.6
2022-09-06T13:59:22.156Z,1.7
2022-09-06T14:04:22.136Z,1.7
2022-09-06T14:09:22.132Z,1.7
2022-09-06T14:14:22.161Z,1.7
2022-09-06T14:19:22.343Z,1.7
2022-09-06T14:24:23.189Z,1.9
2022-09-06T14:29:22.208Z,1.9
2022-09-06T14:34:22.143Z,1.9
2022-09-06T14:39:23.159Z,1.9
2022-09-06T14:44:22.134Z,1.8
2022-09-06T14:49:22.142Z,1.8
2022-09-06T14:54:24.120Z,1.8
2022-09-06T14:59:22.387Z,1.7
2022-09-06T15:04:22.415Z,1.7
2022-09-06T15:09:22.169Z,1.7
2022-09-06T15:14:22.467Z,1.7
2022-09-06T15:19:22.200Z,1.6
2022-09-06T15:24:22.137Z,1.6
2022-09-06T15:29:22.137Z,1.6
2022-09-06T15:34:22.194Z,1.6
2022-09-06T15:39:22.289Z,1.6
2022-09-06T15:44:23.177Z,1.6
2022-09-06T15:49:28.619Z,1.6
2022-09-06T15:54:22.163Z,1.6
2022-09-06T15:59:22.159Z,1.8
2022-09-06T16:04:22.659Z,1.8
2022-09-06T16:09:22.189Z,1.6
2022-09-06T16:14:22.228Z,1.6
2022-09-06T16:19:22.206Z,1.6
2022-09-06T16:24:22.184Z,1.5
2022-09-06T16:29:22.161Z,1.5
2022-09-06T16:34:22.235Z,1.5
2022-09-06T16:39:22.194Z,1.5
2022-09-06T16:44:22.181Z,1.5
2022-09-06T16:49:25.540Z,1.7
2022-09-06T16:54:22.231Z,1.7
2022-09-06T16:59:22.194Z,1.7
2022-09-06T17:04:22.190Z,1.7
2022-09-06T17:09:22.213Z,1.8
2022-09-06T17:14:22.148Z,1.8
2022-09-06T17:19:22.228Z,1.8
2022-09-06T17:24:22.641Z,1.9
2022-09-06T17:29:22.225Z,2.1
2022-09-06T17:34:22.234Z,2.1
2022-09-06T17:39:22.441Z,2.1
2022-09-06T17:44:22.219Z,2.1
2022-09-06T17:49:22.253Z,2.1
2022-09-06T17:54:22.185Z,2.2
2022-09-06T17:59:22.231Z,2.2
2022-09-06T18:04:22.256Z,2.4
2022-09-06T18:09:22.353Z,2.4
2022-09-06T18:14:22.252Z,2.7
2022-09-06T18:19:22.227Z,2.7
2022-09-06T18:24:22.256Z,2.8
2022-09-06T18:29:22.238Z,3.1
2022-09-06T18:34:22.282Z,3.2
2022-09-06T18:39:22.249Z,3.5
2022-09-06T18:44:22.245Z,3.5
2022-09-06T18:49:22.264Z,3.5
2022-09-06T18:54:22.279Z,3.5
2022-09-06T18:59:22.266Z,3.5
2022-09-06T19:04:22.269Z,3.6
2022-09-06T19:09:22.407Z,3.6
2022-09-06T19:14:22.281Z,3.6
2022-09-06T19:19:22.302Z,3.6
2022-09-06T19:24:22.268Z,3.8
2022-09-06T19:29:22.222Z,3.8
2022-09-06T19:34:22.730Z,4.1
2022-09-06T19:39:22.241Z,4.1
2022-09-06T19:44:22.310Z,4.1
2022-09-06T19:49:22.286Z,3.8
2022-09-06T19:54:22.273Z,3.8
2022-09-06T19:59:22.346Z,3.7
2022-09-06T20:04:22.296Z,3.6
2022-09-06T20:09:22.290Z,3.6
2022-09-06T20:14:22.464Z,3.6
2022-09-06T20:19:23.605Z,3.8
2022-09-06T20:24:22.259Z,3.9
2022-09-06T20:29:22.302Z,3.9
2022-09-06T20:34:22.301Z,3.9
2022-09-06T20:39:24.706Z,4
2022-09-06T20:44:22.269Z,4.2
2022-09-06T20:49:22.303Z,4.3
2022-09-06T20:54:22.286Z,4.4
2022-09-06T20:59:22.304Z,4.5
2022-09-06T21:04:22.311Z,4.6
2022-09-06T21:09:22.328Z,4.6
2022-09-06T21:14:22.797Z,4.7
2022-09-06T21:19:22.564Z,4.8
2022-09-06T21:24:22.288Z,4.7
2022-09-06T21:29:22.301Z,4.7
2022-09-06T21:34:22.334Z,4.4
2022-09-06T21:39:23.348Z,4.4
2022-09-06T21:44:23.086Z,4.4
2022-09-06T21:49:22.308Z,4.4
2022-09-06T21:54:22.307Z,4.2
2022-09-06T21:59:22.367Z,4.2
2022-09-06T22:04:22.323Z,4.3
2022-09-06T22:09:22.420Z,4.4
2022-09-06T22:14:22.833Z,4.9
2022-09-06T22:19:22.556Z,4.9
2022-09-06T22:24:22.336Z,4.8
2022-09-06T22:29:22.343Z,4.8
2022-09-06T22:34:22.830Z,4.8
2022-09-06T22:39:22.321Z,4.5
2022-09-06T22:44:22.355Z,4.5
2022-09-06T22:49:25.549Z,4.5
2022-09-06T22:54:22.304Z,4.6
2022-09-06T22:59:22.316Z,4.6
2022-09-06T23:04:22.417Z,4.6
2022-09-06T23:09:22.356Z,4.6
2022-09-06T23:14:22.303Z,4.7
2022-09-06T23:19:24.013Z,4.7
2022-09-06T23:24:22.327Z,4.7
2022-09-06T23:29:22.324Z,4.7
2022-09-06T23:34:22.382Z,4.7
2022-09-06T23:39:22.988Z,4.9
2022-09-06T23:44:22.337Z,5.2
2022-09-06T23:49:22.365Z,5.6
2022-09-06T23:54:22.336Z,5.6
2022-09-06T23:59:22.338Z,5.6
